createdAt,value
2023-01-30T00:01:34.984Z,4.85
2023-01-30T00:04:02.197Z,4.76
2023-01-30T00:06:29.350Z,4.97
2023-01-30T00:08:56.323Z,5.12
2023-01-30T00:11:29.984Z,5.00
2023-01-30T00:13:59.556Z,4.91
2023-01-30T00:16:29.464Z,5.18
2023-01-30T00:18:56.417Z,5.09
2023-01-30T00:21:23.422Z,5.07
2023-01-30T00:23:52.588Z,5.37
2023-01-30T00:26:22.122Z,5.18
2023-01-30T00:28:51.360Z,5.40
2023-01-30T00:31:18.631Z,5.20
2023-01-30T00:33:45.502Z,5.26
2023-01-30T00:36:13.329Z,5.30
2023-01-30T00:38:42.675Z,5.31
2023-01-30T00:41:10.915Z,5.45
2023-01-30T00:43:56.661Z,5.33
2023-01-30T00:46:51.558Z,5.39
2023-01-30T00:49:23.794Z,5.30
2023-01-30T00:51:51.775Z,5.37
2023-01-30T00:54:18.748Z,5.26
2023-01-30T00:56:47.804Z,5.38
2023-01-30T00:59:14.860Z,5.64
2023-01-30T01:01:43.987Z,5.65
2023-01-30T01:04:13.560Z,5.62
2023-01-30T01:06:40.602Z,5.51
2023-01-30T01:09:07.923Z,5.65
2023-01-30T01:11:35.288Z,5.92
2023-01-30T01:14:08.181Z,5.54
2023-01-30T01:16:36.371Z,5.62
2023-01-30T01:19:04.262Z,5.74
2023-01-30T01:21:34.198Z,5.88
2023-01-30T01:24:03.697Z,5.79
2023-01-30T01:26:30.905Z,5.69
2023-01-30T01:29:01.331Z,5.65
2023-01-30T01:31:28.379Z,5.76
2023-01-30T01:33:55.646Z,5.78
2023-01-30T01:39:10.232Z,6.02
2023-01-30T01:41:37.314Z,6.01
2023-01-30T01:44:07.212Z,5.94
2023-01-30T01:46:56.213Z,5.87
2023-01-30T01:49:34.607Z,5.94
2023-01-30T01:52:18.525Z,6.02
2023-01-30T01:55:00.427Z,5.98
2023-01-30T01:57:46.471Z,5.93
2023-01-30T02:00:19.023Z,5.73
2023-01-30T02:02:55.019Z,6.01
2023-01-30T02:05:27.035Z,6.07
2023-01-30T02:08:23.445Z,6.08
2023-01-30T02:11:37.492Z,5.93
2023-01-30T02:14:05.076Z,5.97
2023-01-30T02:16:35.106Z,6.03
2023-01-30T02:19:06.729Z,5.98
2023-01-30T02:21:42.676Z,6.10
2023-01-30T02:25:11.977Z,6.09
2023-01-30T02:28:27.298Z,6.01
2023-01-30T02:31:50.582Z,6.13
2023-01-30T02:34:54.566Z,6.15
2023-01-30T02:37:36.437Z,6.04
2023-01-30T02:40:54.431Z,6.10
2023-01-30T02:43:36.403Z,6.17
2023-01-30T02:46:12.903Z,6.16
2023-01-30T02:49:02.882Z,6.25
2023-01-30T02:51:34.475Z,6.40
2023-01-30T02:54:08.484Z,6.31
2023-01-30T02:56:59.969Z,6.41
2023-01-30T02:59:37.964Z,6.19
2023-01-30T03:02:13.655Z,6.26
2023-01-30T03:05:11.356Z,6.26
2023-01-30T03:08:04.519Z,6.12
2023-01-30T03:10:43.420Z,6.18
2023-01-30T03:13:28.543Z,6.35
2023-01-30T03:16:33.471Z,6.38
2023-01-30T03:19:02.182Z,6.61
2023-01-30T03:21:29.381Z,6.38
2023-01-30T03:23:59.237Z,6.53
2023-01-30T03:26:33.224Z,6.70
2023-01-30T03:29:05.330Z,6.72
2023-01-30T03:31:32.499Z,6.58
2023-01-30T03:33:59.527Z,6.81
2023-01-30T03:36:26.724Z,6.80
2023-01-30T03:38:56.124Z,6.83
2023-01-30T03:41:28.470Z,6.71
2023-01-30T03:43:57.978Z,6.63
2023-01-30T03:46:30.437Z,6.72
2023-01-30T03:48:57.413Z,6.84
2023-01-30T03:51:24.428Z,6.87
2023-01-30T03:53:51.268Z,6.84
2023-01-30T03:56:20.518Z,6.72
2023-01-30T03:58:47.509Z,6.98
2023-01-30T04:01:16.670Z,6.97
2023-01-30T04:03:43.656Z,6.88
2023-01-30T04:06:13.794Z,7.09
2023-01-30T04:08:45.402Z,7.07
2023-01-30T04:11:12.385Z,7.08
2023-01-30T04:13:41.679Z,7.03
2023-01-30T04:16:21.821Z,7.01
2023-01-30T04:18:51.430Z,7.01
2023-01-30T04:21:21.279Z,6.85
2023-01-30T04:23:48.386Z,7.00
2023-01-30T04:26:15.708Z,7.16
2023-01-30T04:28:44.563Z,7.30
2023-01-30T04:31:14.290Z,7.31
2023-01-30T04:33:44.683Z,7.32
2023-01-30T04:36:14.066Z,7.41
2023-01-30T04:38:41.099Z,7.57
2023-01-30T04:41:08.119Z,7.66
2023-01-30T04:43:35.116Z,7.69
2023-01-30T04:46:05.916Z,7.66
2023-01-30T04:48:32.910Z,7.66
2023-01-30T04:51:00.020Z,7.68
2023-01-30T04:53:26.939Z,7.64
2023-01-30T04:55:56.093Z,7.53
2023-01-30T04:58:25.983Z,7.57
2023-01-30T05:00:55.214Z,7.58
2023-01-30T05:03:22.199Z,7.72
2023-01-30T05:05:51.486Z,7.68
2023-01-30T05:08:20.912Z,7.60
2023-01-30T05:10:47.724Z,7.65
2023-01-30T05:13:14.579Z,7.68
2023-01-30T05:15:48.118Z,7.82
2023-01-30T05:18:15.003Z,7.94
2023-01-30T05:20:46.539Z,7.83
2023-01-30T05:23:15.837Z,7.82
2023-01-30T05:25:48.098Z,7.87
2023-01-30T05:28:14.985Z,8.03
2023-01-30T05:30:41.885Z,8.15
2023-01-30T05:33:11.810Z,7.76
2023-01-30T05:35:38.666Z,7.70
2023-01-30T05:38:08.505Z,7.81
2023-01-30T05:40:35.372Z,7.61
2023-01-30T05:43:06.980Z,7.75
2023-01-30T05:45:38.889Z,7.82
2023-01-30T05:48:10.835Z,7.78
2023-01-30T05:50:37.774Z,7.92
2023-01-30T05:53:04.726Z,7.84
2023-01-30T05:55:31.665Z,8.00
2023-01-30T05:57:58.520Z,7.77
2023-01-30T06:00:25.444Z,7.70
2023-01-30T06:02:54.650Z,7.78
2023-01-30T06:05:21.532Z,7.84
2023-01-30T06:07:51.504Z,7.83
2023-01-30T06:10:18.527Z,7.82
2023-01-30T06:12:50.091Z,7.79
2023-01-30T06:15:17.371Z,7.69
2023-01-30T06:17:46.712Z,7.77
2023-01-30T06:20:16.138Z,7.82
2023-01-30T06:22:43.097Z,7.59
2023-01-30T06:25:10.513Z,7.71
2023-01-30T06:27:39.531Z,7.54
2023-01-30T06:30:07.220Z,7.27
2023-01-30T06:32:36.499Z,7.50
2023-01-30T06:35:03.869Z,7.58
2023-01-30T06:37:30.908Z,7.34
2023-01-30T06:40:03.392Z,7.48
2023-01-30T06:42:33.326Z,7.51
2023-01-30T06:45:00.265Z,7.54
2023-01-30T06:47:27.514Z,7.42
2023-01-30T06:49:54.339Z,7.53
2023-01-30T06:52:24.225Z,7.42
2023-01-30T06:54:53.273Z,7.25
2023-01-30T06:57:20.209Z,7.22
2023-01-30T06:59:47.131Z,7.32
2023-01-30T07:02:17.720Z,7.37
2023-01-30T07:04:44.591Z,7.47
2023-01-30T07:07:14.465Z,7.48
2023-01-30T07:09:44.548Z,7.51
2023-01-30T07:12:11.377Z,7.37
2023-01-30T07:14:40.563Z,7.20
2023-01-30T07:17:07.416Z,7.09
2023-01-30T07:19:34.367Z,7.08
2023-01-30T07:22:03.837Z,7.03
2023-01-30T07:24:31.095Z,7.21
2023-01-30T07:26:58.083Z,7.32
2023-01-30T07:29:25.013Z,7.09
2023-01-30T07:31:52.336Z,7.11
2023-01-30T07:34:21.520Z,7.13
2023-01-30T07:36:50.619Z,6.95
2023-01-30T07:39:24.483Z,6.95
2023-01-30T07:41:51.554Z,6.97
2023-01-30T07:44:21.373Z,7.10
2023-01-30T07:46:50.491Z,7.13
2023-01-30T07:49:17.548Z,7.15
2023-01-30T07:51:44.350Z,7.22
2023-01-30T07:54:16.857Z,7.25
2023-01-30T07:56:46.341Z,7.38
2023-01-30T07:59:16.680Z,7.31
2023-01-30T08:01:45.575Z,7.31
2023-01-30T08:04:15.650Z,7.61
2023-01-30T08:06:44.687Z,7.68
2023-01-30T08:09:11.605Z,7.91
2023-01-30T08:11:41.958Z,7.80
2023-01-30T08:14:08.811Z,7.97
2023-01-30T08:16:35.804Z,8.48
2023-01-30T08:19:06.245Z,9.02
2023-01-30T08:21:33.225Z,8.79
2023-01-30T08:24:02.506Z,8.26
2023-01-30T08:26:29.493Z,8.19
2023-01-30T08:28:56.558Z,8.71
2023-01-30T08:31:23.713Z,8.72
2023-01-30T08:33:53.666Z,8.66
2023-01-30T08:36:20.593Z,8.64
2023-01-30T08:38:47.458Z,8.41
2023-01-30T08:41:14.296Z,8.30
2023-01-30T08:43:41.228Z,8.33
2023-01-30T08:46:08.165Z,8.22
2023-01-30T08:48:49.458Z,8.29
2023-01-30T08:51:19.060Z,8.44
2023-01-30T08:53:50.630Z,8.54
2023-01-30T08:56:22.146Z,8.57
2023-01-30T08:58:49.265Z,8.23
2023-01-30T09:01:16.525Z,7.85
2023-01-30T09:03:43.604Z,8.06
2023-01-30T09:06:10.499Z,8.26
2023-01-30T09:08:37.375Z,8.20
2023-01-30T09:11:06.625Z,8.09
2023-01-30T09:13:35.640Z,8.09
2023-01-30T09:16:06.419Z,8.23
2023-01-30T09:18:33.338Z,8.36
2023-01-30T09:21:12.430Z,8.51
2023-01-30T09:23:39.481Z,8.43
2023-01-30T09:26:06.860Z,8.36
2023-01-30T09:28:35.063Z,8.57
2023-01-30T09:31:02.740Z,8.62
2023-01-30T09:33:30.013Z,8.59
2023-01-30T09:35:57.143Z,8.31
2023-01-30T09:38:24.075Z,8.84
2023-01-30T09:40:59.994Z,8.94
2023-01-30T09:43:42.783Z,9.23
2023-01-30T09:46:47.880Z,10.37
2023-01-30T09:49:50.786Z,9.85
2023-01-30T09:53:15.857Z,9.37
2023-01-30T09:55:43.560Z,10.26
2023-01-30T09:58:22.012Z,11.07
2023-01-30T10:00:54.523Z,10.73
2023-01-30T10:03:55.777Z,10.00
2023-01-30T10:06:27.419Z,10.04
2023-01-30T10:09:30.483Z,11.99
2023-01-30T10:12:21.024Z,11.53
2023-01-30T10:15:21.566Z,11.22
2023-01-30T10:17:57.462Z,11.20
2023-01-30T10:21:00.425Z,12.74
2023-01-30T10:23:55.024Z,14.88
2023-01-30T10:26:27.299Z,15.05
2023-01-30T10:29:07.617Z,15.83
2023-01-30T10:32:00.847Z,13.92
2023-01-30T10:34:39.655Z,12.61
2023-01-30T10:37:27.006Z,13.53
2023-01-30T10:40:05.139Z,14.08
2023-01-30T10:42:51.177Z,14.27
2023-01-30T10:45:25.444Z,13.53
2023-01-30T10:48:28.663Z,12.40
2023-01-30T10:51:08.965Z,12.59
2023-01-30T10:53:45.785Z,12.72
2023-01-30T10:56:24.829Z,12.56
2023-01-30T10:59:00.458Z,12.41
2023-01-30T11:02:17.599Z,12.52
2023-01-30T11:05:10.000Z,12.31
2023-01-30T11:07:36.832Z,11.73
2023-01-30T11:10:23.222Z,11.78
2023-01-30T11:13:13.503Z,12.89
2023-01-30T11:15:42.553Z,12.81
2023-01-30T11:18:41.404Z,12.32
2023-01-30T11:21:10.163Z,12.04
2023-01-30T11:23:42.509Z,11.55
2023-01-30T11:26:47.906Z,10.68
2023-01-30T11:29:39.385Z,10.08
2023-01-30T11:32:21.724Z,9.92
2023-01-30T11:35:18.480Z,9.94
2023-01-30T11:37:48.476Z,9.69
2023-01-30T11:40:18.876Z,9.67
2023-01-30T11:42:54.690Z,9.57
2023-01-30T11:45:30.353Z,9.63
2023-01-30T11:48:04.953Z,9.34
2023-01-30T11:51:01.418Z,8.82
2023-01-30T11:53:48.264Z,8.44
2023-01-30T11:56:33.521Z,8.32
2023-01-30T11:59:26.081Z,8.40
2023-01-30T12:02:03.441Z,8.11
2023-01-30T12:04:30.710Z,7.84
2023-01-30T12:07:19.719Z,7.82
2023-01-30T12:09:50.543Z,7.86
2023-01-30T12:12:33.698Z,8.01
2023-01-30T12:15:21.744Z,8.24
2023-01-30T12:18:18.670Z,9.61
2023-01-30T12:20:54.544Z,11.88
2023-01-30T12:23:47.464Z,15.54
2023-01-30T12:26:50.257Z,17.40
2023-01-30T12:29:48.864Z,17.59
2023-01-30T12:32:22.273Z,18.21
2023-01-30T12:34:51.211Z,16.68
2023-01-30T12:38:03.762Z,15.03
2023-01-30T12:40:55.309Z,13.30
2023-01-30T12:44:10.367Z,12.04
2023-01-30T12:46:52.446Z,10.58
2023-01-30T12:49:50.113Z,9.41
2023-01-30T12:52:47.237Z,8.97
2023-01-30T12:55:38.460Z,8.95
2023-01-30T12:58:21.882Z,8.88
2023-01-30T13:00:56.761Z,8.38
2023-01-30T13:03:43.931Z,8.20
2023-01-30T13:06:16.480Z,8.27
2023-01-30T13:09:04.607Z,8.28
2023-01-30T13:12:06.930Z,7.96
2023-01-30T13:15:00.531Z,8.13
2023-01-30T13:18:07.626Z,9.00
2023-01-30T13:21:09.126Z,12.06
2023-01-30T13:24:12.206Z,14.39
2023-01-30T13:26:43.063Z,15.25
2023-01-30T13:29:36.613Z,16.93
2023-01-30T13:32:14.954Z,17.36
2023-01-30T13:34:46.225Z,17.50
2023-01-30T13:37:18.698Z,16.65
2023-01-30T13:40:00.820Z,14.97
2023-01-30T13:42:37.558Z,13.03
2023-01-30T13:45:10.203Z,12.11
2023-01-30T13:48:26.815Z,11.39
2023-01-30T13:51:34.543Z,10.84
2023-01-30T13:54:19.260Z,10.42
2023-01-30T13:56:46.069Z,10.03
2023-01-30T14:00:11.083Z,9.49
2023-01-30T14:02:38.091Z,9.49
2023-01-30T14:05:09.940Z,9.42
2023-01-30T14:07:42.021Z,9.47
2023-01-30T14:10:08.902Z,9.38
2023-01-30T14:12:47.317Z,9.21
2023-01-30T14:15:14.514Z,9.30
2023-01-30T14:18:19.728Z,9.06
2023-01-30T14:20:53.716Z,9.23
2023-01-30T14:23:36.268Z,9.27
2023-01-30T14:26:05.465Z,9.04
2023-01-30T14:28:34.480Z,8.98
2023-01-30T14:31:03.309Z,8.96
2023-01-30T14:33:51.315Z,8.61
2023-01-30T14:36:21.184Z,8.77
2023-01-30T14:38:57.850Z,8.86
2023-01-30T14:41:27.230Z,9.03
2023-01-30T14:43:54.740Z,9.14
2023-01-30T14:46:21.620Z,8.83
2023-01-30T14:48:53.111Z,8.91
2023-01-30T14:51:48.434Z,8.92
2023-01-30T14:54:15.248Z,9.16
2023-01-30T14:56:58.673Z,8.98
2023-01-30T15:00:03.300Z,8.91
2023-01-30T15:02:44.373Z,9.02
2023-01-30T15:05:25.671Z,8.93
2023-01-30T15:08:03.783Z,9.02
2023-01-30T15:11:05.909Z,8.98
2023-01-30T15:13:48.130Z,8.98
2023-01-30T15:16:45.723Z,9.01
2023-01-30T15:19:34.610Z,8.98
2023-01-30T15:22:28.987Z,8.87
2023-01-30T15:25:22.091Z,9.19
2023-01-30T15:28:25.334Z,9.50
2023-01-30T15:31:15.455Z,9.19
2023-01-30T15:33:50.977Z,8.96
2023-01-30T15:36:28.548Z,8.88
2023-01-30T15:39:06.324Z,8.81
2023-01-30T15:41:43.217Z,9.05
2023-01-30T15:44:48.539Z,8.87
2023-01-30T15:47:53.484Z,8.97
2023-01-30T15:50:21.138Z,8.93
2023-01-30T15:52:56.404Z,8.85
2023-01-30T15:55:40.146Z,8.77
2023-01-30T15:58:17.912Z,8.84
2023-01-30T16:00:49.020Z,8.56
2023-01-30T16:03:30.299Z,8.51
2023-01-30T16:05:59.764Z,8.41
2023-01-30T16:08:35.275Z,8.49
2023-01-30T16:11:05.305Z,8.68
2023-01-30T16:13:33.271Z,8.46
2023-01-30T16:16:12.684Z,8.53
2023-01-30T16:18:59.434Z,8.36
2023-01-30T16:21:37.797Z,8.36
2023-01-30T16:24:20.555Z,8.35
2023-01-30T16:26:52.989Z,8.54
2023-01-30T16:29:26.681Z,8.53
2023-01-30T16:31:56.638Z,8.55
2023-01-30T16:34:39.667Z,8.51
2023-01-30T16:37:16.643Z,8.56
2023-01-30T16:39:45.724Z,8.55
2023-01-30T16:42:30.903Z,8.55
2023-01-30T16:45:16.389Z,8.49
2023-01-30T16:47:43.503Z,8.49
2023-01-30T16:50:24.160Z,8.46
2023-01-30T16:52:58.225Z,8.53
2023-01-30T16:55:29.053Z,8.71
2023-01-30T16:58:03.188Z,8.59
2023-01-30T17:00:42.682Z,8.43
2023-01-30T17:03:33.691Z,8.52
2023-01-30T17:06:12.454Z,8.46
2023-01-30T17:08:49.539Z,8.49
2023-01-30T17:11:38.233Z,8.43
2023-01-30T17:14:23.933Z,8.26
2023-01-30T17:17:09.607Z,8.29
2023-01-30T17:19:41.749Z,8.58
2023-01-30T17:22:20.665Z,8.47
2023-01-30T17:24:50.565Z,8.30
2023-01-30T17:27:20.026Z,8.24
2023-01-30T17:29:47.425Z,7.79
2023-01-30T17:32:16.101Z,7.88
2023-01-30T17:34:43.146Z,7.74
2023-01-30T17:37:16.288Z,7.90
2023-01-30T17:39:43.577Z,7.91
2023-01-30T17:42:13.011Z,7.91
2023-01-30T17:44:41.124Z,8.00
2023-01-30T17:47:14.012Z,7.99
2023-01-30T17:49:43.874Z,8.07
2023-01-30T17:52:16.047Z,8.17
2023-01-30T17:54:45.466Z,7.99
2023-01-30T17:57:15.632Z,7.94
2023-01-30T17:59:45.160Z,7.74
2023-01-30T18:02:12.750Z,7.54
2023-01-30T18:04:42.186Z,7.66
2023-01-30T18:07:14.739Z,7.67
2023-01-30T18:09:46.145Z,7.72
2023-01-30T18:12:13.027Z,7.71
2023-01-30T18:14:42.912Z,7.59
2023-01-30T18:17:12.561Z,7.62
2023-01-30T18:19:39.512Z,7.72
2023-01-30T18:22:09.068Z,7.79
2023-01-30T18:24:38.215Z,7.96
2023-01-30T18:27:05.297Z,7.99
2023-01-30T18:29:34.278Z,7.70
2023-01-30T18:32:05.620Z,7.62
2023-01-30T18:34:37.579Z,7.53
2023-01-30T18:37:04.585Z,7.65
2023-01-30T18:39:34.852Z,7.44
2023-01-30T18:42:04.158Z,7.63
2023-01-30T18:44:33.779Z,7.53
2023-01-30T18:47:03.128Z,7.35
2023-01-30T18:49:30.569Z,7.45
2023-01-30T18:51:59.547Z,7.46
2023-01-30T18:54:26.453Z,7.31
2023-01-30T18:56:57.013Z,7.27
2023-01-30T18:59:24.953Z,7.27
2023-01-30T19:01:51.971Z,7.11
2023-01-30T19:04:22.039Z,7.30
2023-01-30T19:06:48.937Z,7.26
2023-01-30T19:09:20.127Z,7.16
2023-01-30T19:12:05.398Z,7.36
2023-01-30T19:14:32.376Z,7.18
2023-01-30T19:17:02.215Z,7.17
2023-01-30T19:19:32.369Z,7.19
2023-01-30T19:22:02.172Z,7.31
2023-01-30T19:24:31.665Z,7.32
2023-01-30T19:26:58.926Z,7.40
2023-01-30T19:29:28.522Z,7.72
2023-01-30T19:31:59.814Z,7.62
2023-01-30T19:34:31.753Z,7.59
2023-01-30T19:36:59.459Z,7.61
2023-01-30T19:39:26.953Z,7.66
2023-01-30T19:41:54.275Z,7.69
2023-01-30T19:44:22.972Z,7.68
2023-01-30T19:46:50.902Z,7.82
2023-01-30T19:49:18.098Z,7.77
2023-01-30T19:51:45.100Z,7.68
2023-01-30T19:54:13.755Z,7.70
2023-01-30T19:56:49.095Z,7.62
2023-01-30T19:59:18.314Z,7.60
2023-01-30T20:01:46.576Z,7.61
2023-01-30T20:04:15.606Z,7.57
2023-01-30T20:06:46.368Z,7.60
2023-01-30T20:09:16.491Z,7.27
2023-01-30T20:11:45.856Z,7.32
2023-01-30T20:14:14.984Z,7.19
2023-01-30T20:16:46.868Z,7.03
2023-01-30T20:19:19.797Z,7.16
2023-01-30T20:21:46.873Z,7.34
2023-01-30T20:24:15.959Z,7.36
2023-01-30T20:26:48.723Z,7.12
2023-01-30T20:29:17.936Z,7.10
2023-01-30T20:31:47.307Z,7.13
2023-01-30T20:34:18.140Z,7.22
2023-01-30T20:36:45.075Z,6.95
2023-01-30T20:39:16.976Z,7.19
2023-01-30T20:41:44.242Z,7.10
2023-01-30T20:44:15.448Z,7.17
2023-01-30T20:46:50.941Z,6.90
2023-01-30T20:49:22.861Z,6.96
2023-01-30T20:51:52.657Z,6.95
2023-01-30T20:54:23.951Z,6.98
2023-01-30T20:56:58.460Z,7.01
2023-01-30T20:59:28.724Z,6.91
2023-01-30T21:01:57.708Z,7.03
2023-01-30T21:04:27.522Z,7.16
2023-01-30T21:07:00.295Z,7.25
2023-01-30T21:09:29.924Z,7.23
2023-01-30T21:11:56.919Z,7.40
2023-01-30T21:14:26.440Z,7.45
2023-01-30T21:16:56.154Z,7.30
2023-01-30T21:19:23.482Z,7.24
2023-01-30T21:21:54.534Z,7.05
2023-01-30T21:24:27.997Z,7.00
2023-01-30T21:26:57.836Z,7.10
2023-01-30T21:29:31.742Z,7.07
2023-01-30T21:31:59.006Z,6.98
2023-01-30T21:34:26.212Z,7.03
2023-01-30T21:37:11.420Z,6.98
2023-01-30T21:39:59.559Z,6.74
2023-01-30T21:42:45.444Z,6.87
2023-01-30T21:45:12.831Z,7.03
2023-01-30T21:47:39.980Z,6.69
2023-01-30T21:50:07.947Z,6.59
2023-01-30T21:52:35.031Z,6.87
2023-01-30T21:55:04.432Z,6.86
2023-01-30T21:57:34.818Z,6.60
2023-01-30T22:00:01.965Z,6.71
2023-01-30T22:02:29.240Z,6.79
2023-01-30T22:04:56.176Z,6.73
2023-01-30T22:07:23.360Z,6.70
2023-01-30T22:09:52.381Z,6.75
2023-01-30T22:12:19.439Z,6.68
2023-01-30T22:14:46.818Z,6.82
2023-01-30T22:17:13.833Z,6.74
2023-01-30T22:19:40.927Z,6.89
2023-01-30T22:22:10.085Z,6.88
2023-01-30T22:24:37.363Z,6.78
2023-01-30T22:27:07.256Z,6.87
2023-01-30T22:29:35.278Z,6.66
2023-01-30T22:32:04.827Z,6.48
2023-01-30T22:34:33.513Z,6.53
2023-01-30T22:37:01.806Z,6.44
2023-01-30T22:39:28.768Z,6.59
2023-01-30T22:41:57.779Z,6.47
2023-01-30T22:44:24.708Z,6.67
2023-01-30T22:46:54.421Z,6.59
2023-01-30T22:49:21.530Z,6.75
2023-01-30T22:51:53.360Z,6.88
2023-01-30T22:54:24.856Z,6.78
2023-01-30T22:56:54.161Z,6.83
2023-01-30T22:59:25.620Z,6.67
2023-01-30T23:01:52.894Z,6.48
2023-01-30T23:04:24.672Z,6.61
2023-01-30T23:06:54.015Z,6.48
2023-01-30T23:09:24.198Z,6.45
2023-01-30T23:12:15.962Z,6.39
2023-01-30T23:14:43.670Z,6.36
2023-01-30T23:17:34.274Z,6.57
2023-01-30T23:20:01.280Z,6.39
2023-01-30T23:22:28.200Z,6.34
2023-01-30T23:24:57.187Z,6.31
2023-01-30T23:27:24.212Z,6.36
2023-01-30T23:29:51.225Z,6.31
2023-01-30T23:32:20.457Z,6.24
2023-01-30T23:34:48.451Z,6.24
2023-01-30T23:37:16.627Z,6.15
2023-01-30T23:39:46.235Z,6.44
2023-01-30T23:42:15.465Z,6.54
2023-01-30T23:44:47.254Z,6.53
2023-01-30T23:47:18.622Z,6.52
2023-01-30T23:49:45.589Z,6.42
2023-01-30T23:52:14.984Z,6.43
2023-01-30T23:54:41.891Z,6.09
2023-01-30T23:57:13.369Z,6.22
2023-01-30T23:59:40.304Z,6.17
